Terminal Aerodrome Forecast
Issued by NWS El Paso, TX

Home | Current Version | Previous Version | Text Only | Print | Product List | Glossary On
Versions: 1 2 3 4 5 6 7 8 9 10 11 12 13 14 15 16 17 18 19
000
FTUS44 KEPZ 190200 AAA
TAFELP
TAF AMD
KELP 190223Z 1902/1924 36010KT P6SM SHRA FEW010 SCT030 BKN060
      TEMPO 1902/1904 4SM RA FEW008 BKN025 OVC060
     FM190400 VRB05KT P6SM VCSH SCT025 BKN060 OVC100
     FM191000 25010KT P6SM SCT028 SCT060 BKN100
     FM191900 17012G21KT P6SM SCT040 BKN120=

USA.gov is the U.S. government's official web portal to all federal, state and local government web resources and services.